sensor_id;sensor_type;location;lat;lon;timestamp;pressure;altitude;pressure_sealevel;temperature;humidity
22605;BME280;11469;49.024;8.246;2023-03-21T00:00:58;100687.94;;;9.70;89.44
22605;BME280;11469;49.024;8.246;2023-03-21T00:03:24;100687.13;;;9.70;89.46
22605;BME280;11469;49.024;8.246;2023-03-21T00:05:50;100676.97;;;9.77;89.26
22605;BME280;11469;49.024;8.246;2023-03-21T00:08:19;100673.22;;;9.73;89.04
22605;BME280;11469;49.024;8.246;2023-03-21T00:10:46;100670.91;;;9.63;89.58
22605;BME280;11469;49.024;8.246;2023-03-21T00:13:12;100669.97;;;9.59;90.13
22605;BME280;11469;49.024;8.246;2023-03-21T00:15:38;100666.69;;;9.57;90.34
22605;BME280;11469;49.024;8.246;2023-03-21T00:18:15;100667.97;;;9.59;90.47
22605;BME280;11469;49.024;8.246;2023-03-21T00:20:41;100670.44;;;9.61;90.85
22605;BME280;11469;49.024;8.246;2023-03-21T00:23:11;100667.63;;;9.61;91.09
22605;BME280;11469;49.024;8.246;2023-03-21T00:25:37;100662.25;;;9.56;91.45
22605;BME280;11469;49.024;8.246;2023-03-21T00:28:02;100670.88;;;9.51;91.01
22605;BME280;11469;49.024;8.246;2023-03-21T00:30:27;100665.41;;;9.42;91.58
22605;BME280;11469;49.024;8.246;2023-03-21T00:32:53;100665.63;;;9.37;91.79
22605;BME280;11469;49.024;8.246;2023-03-21T00:35:18;100660.38;;;9.36;91.95
22605;BME280;11469;49.024;8.246;2023-03-21T00:37:44;100654.66;;;9.32;92.58
22605;BME280;11469;49.024;8.246;2023-03-21T00:40:11;100658.63;;;9.31;92.82
22605;BME280;11469;49.024;8.246;2023-03-21T00:42:36;100655.84;;;9.31;92.93
22605;BME280;11469;49.024;8.246;2023-03-21T00:45:03;100653.72;;;9.28;93.14
22605;BME280;11469;49.024;8.246;2023-03-21T00:47:30;100650.34;;;9.22;93.23
22605;BME280;11469;49.024;8.246;2023-03-21T00:49:56;100649.06;;;9.20;93.69
22605;BME280;11469;49.024;8.246;2023-03-21T00:52:21;100645.31;;;9.16;94.13
22605;BME280;11469;49.024;8.246;2023-03-21T00:54:47;100644.50;;;9.15;93.73
22605;BME280;11469;49.024;8.246;2023-03-21T00:57:12;100640.06;;;9.14;93.28
22605;BME280;11469;49.024;8.246;2023-03-21T00:59:38;100634.34;;;9.11;93.86
22605;BME280;11469;49.024;8.246;2023-03-21T01:02:03;100641.09;;;9.10;93.62
22605;BME280;11469;49.024;8.246;2023-03-21T01:04:32;100640.28;;;9.09;93.72
22605;BME280;11469;49.024;8.246;2023-03-21T01:06:58;100635.84;;;9.08;93.72
22605;BME280;11469;49.024;8.246;2023-03-21T01:09:23;100630.59;;;9.07;93.51
22605;BME280;11469;49.024;8.246;2023-03-21T01:11:50;100635.72;;;9.05;93.59
22605;BME280;11469;49.024;8.246;2023-03-21T01:14:17;100631.28;;;9.04;93.26
22605;BME280;11469;49.024;8.246;2023-03-21T01:16:42;100631.16;;;9.00;92.96
22605;BME280;11469;49.024;8.246;2023-03-21T01:19:11;100623.13;;;8.98;93.61
22605;BME280;11469;49.024;8.246;2023-03-21T01:21:37;100628.28;;;8.96;93.50
22605;BME280;11469;49.024;8.246;2023-03-21T01:24:02;100621.41;;;8.94;93.37
22605;BME280;11469;49.024;8.246;2023-03-21T01:26:28;100623.38;;;8.93;93.44
22605;BME280;11469;49.024;8.246;2023-03-21T01:28:53;100630.13;;;8.92;93.30
22605;BME280;11469;49.024;8.246;2023-03-21T01:31:19;100623.59;;;8.88;93.34
22605;BME280;11469;49.024;8.246;2023-03-21T01:33:44;100618.44;;;8.78;93.39
22605;BME280;11469;49.024;8.246;2023-03-21T01:36:15;100619.81;;;8.72;93.96
22605;BME280;11469;49.024;8.246;2023-03-21T01:38:42;100618.94;;;8.59;93.74
22605;BME280;11469;49.024;8.246;2023-03-21T01:41:14;100620.19;;;8.50;94.23
22605;BME280;11469;49.024;8.246;2023-03-21T01:43:42;100622.38;;;8.44;95.01
22605;BME280;11469;49.024;8.246;2023-03-21T01:51:40;100613.69;;;8.16;96.43
22605;BME280;11469;49.024;8.246;2023-03-21T01:54:08;100605.19;;;8.13;96.87
22605;BME280;11469;49.024;8.246;2023-03-21T01:56:38;100598.66;;;8.09;96.96
22605;BME280;11469;49.024;8.246;2023-03-21T01:59:20;100603.28;;;8.05;97.43
22605;BME280;11469;49.024;8.246;2023-03-21T02:01:48;100602.34;;;8.01;97.08
22605;BME280;11469;49.024;8.246;2023-03-21T02:04:15;100593.50;;;7.98;97.33
22605;BME280;11469;49.024;8.246;2023-03-21T02:06:54;100589.31;;;7.84;97.61
22605;BME280;11469;49.024;8.246;2023-03-21T02:09:23;100589.19;;;7.80;97.87
22605;BME280;11469;49.024;8.246;2023-03-21T02:11:50;100593.59;;;7.81;97.74
22605;BME280;11469;49.024;8.246;2023-03-21T02:14:18;100593.31;;;7.74;97.79
22605;BME280;11469;49.024;8.246;2023-03-21T02:17:01;100591.94;;;7.59;98.57
22605;BME280;11469;49.024;8.246;2023-03-21T02:38:40;100580.78;;;7.30;98.38
22605;BME280;11469;49.024;8.246;2023-03-21T02:42:09;100578.19;;;7.25;98.62
22605;BME280;11469;49.024;8.246;2023-03-21T02:46:54;100582.97;;;7.16;99.87
22605;BME280;11469;49.024;8.246;2023-03-21T02:49:25;100573.47;;;7.17;100.00
22605;BME280;11469;49.024;8.246;2023-03-21T02:51:56;100575.28;;;7.13;100.00
22605;BME280;11469;49.024;8.246;2023-03-21T02:54:23;100574.94;;;7.14;100.00
22605;BME280;11469;49.024;8.246;2023-03-21T02:56:52;100573.66;;;7.12;100.00
22605;BME280;11469;49.024;8.246;2023-03-21T02:59:21;100571.19;;;7.10;100.00
22605;BME280;11469;49.024;8.246;2023-03-21T03:01:50;100571.56;;;7.09;100.00
22605;BME280;11469;49.024;8.246;2023-03-21T03:04:27;100566.78;;;7.09;100.00
22605;BME280;11469;49.024;8.246;2023-03-21T03:07:36;100564.34;;;7.08;100.00
22605;BME280;11469;49.024;8.246;2023-03-21T03:16:07;100570.09;;;7.03;99.95
22605;BME280;11469;49.024;8.246;2023-03-21T03:18:53;100573.41;;;6.96;99.58
22605;BME280;11469;49.024;8.246;2023-03-21T03:21:50;100566.03;;;6.91;99.66
22605;BME280;11469;49.024;8.246;2023-03-21T03:29:15;100565.25;;;6.82;99.71
22605;BME280;11469;49.024;8.246;2023-03-21T03:31:46;100560.66;;;6.78;99.91
22605;BME280;11469;49.024;8.246;2023-03-21T03:34:24;100564.81;;;6.63;100.00
22605;BME280;11469;49.024;8.246;2023-03-21T03:36:55;100553.19;;;6.61;100.00
22605;BME280;11469;49.024;8.246;2023-03-21T03:39:46;100552.56;;;6.55;100.00
22605;BME280;11469;49.024;8.246;2023-03-21T03:42:51;100555.34;;;6.47;100.00
22605;BME280;11469;49.024;8.246;2023-03-21T03:45:17;100558.31;;;6.42;100.00
22605;BME280;11469;49.024;8.246;2023-03-21T03:48:03;100547.19;;;6.33;100.00
22605;BME280;11469;49.024;8.246;2023-03-21T03:50:35;100555.22;;;6.26;100.00
22605;BME280;11469;49.024;8.246;2023-03-21T03:53:21;100559.47;;;6.23;100.00
22605;BME280;11469;49.024;8.246;2023-03-21T03:55:48;100561.44;;;6.23;100.00
22605;BME280;11469;49.024;8.246;2023-03-21T03:58:19;100565.84;;;6.24;100.00
22605;BME280;11469;49.024;8.246;2023-03-21T04:00:45;100552.25;;;6.31;100.00
22605;BME280;11469;49.024;8.246;2023-03-21T04:03:11;100563.06;;;6.32;100.00
22605;BME280;11469;49.024;8.246;2023-03-21T04:05:36;100557.50;;;6.32;100.00
22605;BME280;11469;49.024;8.246;2023-03-21T04:08:02;100560.44;;;6.36;100.00
22605;BME280;11469;49.024;8.246;2023-03-21T04:10:28;100555.22;;;6.35;100.00
22605;BME280;11469;49.024;8.246;2023-03-21T04:12:53;100558.31;;;6.33;100.00
22605;BME280;11469;49.024;8.246;2023-03-21T04:15:19;100557.50;;;6.32;100.00
22605;BME280;11469;49.024;8.246;2023-03-21T04:17:44;100548.66;;;6.30;100.00
22605;BME280;11469;49.024;8.246;2023-03-21T04:20:10;100561.75;;;6.30;100.00
22605;BME280;11469;49.024;8.246;2023-03-21T04:22:36;100557.34;;;6.29;100.00
22605;BME280;11469;49.024;8.246;2023-03-21T04:25:02;100557.19;;;6.34;100.00
22605;BME280;11469;49.024;8.246;2023-03-21T04:27:29;100554.06;;;6.36;100.00
22605;BME280;11469;49.024;8.246;2023-03-21T04:29:55;100560.13;;;6.38;100.00
22605;BME280;11469;49.024;8.246;2023-03-21T04:32:20;100551.94;;;6.41;100.00
22605;BME280;11469;49.024;8.246;2023-03-21T04:34:48;100563.56;;;6.43;100.00
22605;BME280;11469;49.024;8.246;2023-03-21T04:37:20;100554.88;;;6.45;100.00
22605;BME280;11469;49.024;8.246;2023-03-21T04:39:48;100553.72;;;6.46;100.00
22605;BME280;11469;49.024;8.246;2023-03-21T04:42:14;100555.19;;;6.43;100.00
22605;BME280;11469;49.024;8.246;2023-03-21T04:44:45;100553.72;;;6.46;100.00
22605;BME280;11469;49.024;8.246;2023-03-21T04:47:11;100553.06;;;6.49;100.00
22605;BME280;11469;49.024;8.246;2023-03-21T04:49:38;100555.84;;;6.49;100.00
22605;BME280;11469;49.024;8.246;2023-03-21T04:52:04;100554.38;;;6.51;100.00
22605;BME280;11469;49.024;8.246;2023-03-21T04:54:29;100549.94;;;6.50;100.00
22605;BME280;11469;49.024;8.246;2023-03-21T04:56:57;100548.81;;;6.43;100.00
22605;BME280;11469;49.024;8.246;2023-03-21T04:59:22;100550.78;;;6.33;100.00
22605;BME280;11469;49.024;8.246;2023-03-21T05:01:48;100542.59;;;6.28;100.00
22605;BME280;11469;49.024;8.246;2023-03-21T05:04:14;100536.22;;;6.19;100.00
22605;BME280;11469;49.024;8.246;2023-03-21T05:06:40;100538.69;;;6.21;100.00
22605;BME280;11469;49.024;8.246;2023-03-21T05:09:08;100532.47;;;6.24;100.00
22605;BME280;11469;49.024;8.246;2023-03-21T05:11:35;100540.81;;;6.24;100.00
22605;BME280;11469;49.024;8.246;2023-03-21T05:14:09;100540.47;;;6.25;100.00
22605;BME280;11469;49.024;8.246;2023-03-21T05:16:35;100532.13;;;6.25;100.00
22605;BME280;11469;49.024;8.246;2023-03-21T05:19:01;100534.59;;;6.27;100.00
22605;BME280;11469;49.024;8.246;2023-03-21T05:21:30;100532.78;;;6.22;100.00
22605;BME280;11469;49.024;8.246;2023-03-21T05:23:59;100533.94;;;6.21;100.00
22605;BME280;11469;49.024;8.246;2023-03-21T05:26:28;100533.44;;;6.19;100.00
22605;BME280;11469;49.024;8.246;2023-03-21T05:28:54;100538.34;;;6.22;100.00
22605;BME280;11469;49.024;8.246;2023-03-21T05:31:20;100533.94;;;6.21;100.00
22605;BME280;11469;49.024;8.246;2023-03-21T05:33:46;100536.72;;;6.21;100.00
22605;BME280;11469;49.024;8.246;2023-03-21T05:36:12;100537.22;;;6.15;100.00
22605;BME280;11469;49.024;8.246;2023-03-21T05:38:38;100547.06;;;6.12;100.00
22605;BME280;11469;49.024;8.246;2023-03-21T05:41:10;100544.13;;;6.09;100.00
22605;BME280;11469;49.024;8.246;2023-03-21T05:43:36;100548.38;;;6.06;100.00
22605;BME280;11469;49.024;8.246;2023-03-21T05:46:01;100549.53;;;6.05;100.00
22605;BME280;11469;49.024;8.246;2023-03-21T05:48:26;100550.66;;;6.04;100.00
22605;BME280;11469;49.024;8.246;2023-03-21T05:50:52;100552.13;;;6.02;100.00
22605;BME280;11469;49.024;8.246;2023-03-21T05:53:18;100553.44;;;6.04;100.00
22605;BME280;11469;49.024;8.246;2023-03-21T05:55:44;100551.66;;;6.08;100.00
22605;BME280;11469;49.024;8.246;2023-03-21T05:58:09;100550.34;;;6.06;100.00
22605;BME280;11469;49.024;8.246;2023-03-21T06:00:35;100551.81;;;6.03;100.00
22605;BME280;11469;49.024;8.246;2023-03-21T06:03:00;100558.53;;;6.02;100.00
22605;BME280;11469;49.024;8.246;2023-03-21T06:05:26;100559.00;;;6.04;100.00
22605;BME280;11469;49.024;8.246;2023-03-21T06:07:51;100556.72;;;6.06;100.00
22605;BME280;11469;49.024;8.246;2023-03-21T06:10:16;100561.31;;;6.11;100.00
22605;BME280;11469;49.024;8.246;2023-03-21T06:12:42;100556.38;;;6.16;100.00
22605;BME280;11469;49.024;8.246;2023-03-21T06:15:08;100551.44;;;6.22;100.00
22605;BME280;11469;49.024;8.246;2023-03-21T06:17:34;100558.66;;;6.31;100.00
22605;BME280;11469;49.024;8.246;2023-03-21T06:19:59;100561.09;;;6.42;100.00
22605;BME280;11469;49.024;8.246;2023-03-21T06:22:26;100567.63;;;6.54;100.00
22605;BME280;11469;49.024;8.246;2023-03-21T06:24:51;100570.19;;;6.77;100.00
22605;BME280;11469;49.024;8.246;2023-03-21T06:27:16;100570.59;;;7.05;100.00
22605;BME280;11469;49.024;8.246;2023-03-21T06:29:42;100560.31;;;7.26;100.00
22605;BME280;11469;49.024;8.246;2023-03-21T06:32:07;100563.72;;;7.31;100.00
22605;BME280;11469;49.024;8.246;2023-03-21T06:34:33;100561.75;;;7.32;100.00
22605;BME280;11469;49.024;8.246;2023-03-21T06:36:58;100561.41;;;7.33;100.00
22605;BME280;11469;49.024;8.246;2023-03-21T06:39:23;100562.72;;;7.36;100.00
22605;BME280;11469;49.024;8.246;2023-03-21T06:41:50;100568.59;;;7.43;100.00
22605;BME280;11469;49.024;8.246;2023-03-21T06:44:15;100569.84;;;7.54;100.00
22605;BME280;11469;49.024;8.246;2023-03-21T06:46:40;100567.16;;;7.58;100.00
22605;BME280;11469;49.024;8.246;2023-03-21T06:49:06;100560.31;;;7.55;100.00
22605;BME280;11469;49.024;8.246;2023-03-21T06:51:31;100560.31;;;7.55;100.00
22605;BME280;11469;49.024;8.246;2023-03-21T06:53:57;100562.28;;;7.55;100.00
22605;BME280;11469;49.024;8.246;2023-03-21T06:56:22;100548.69;;;7.53;100.00
22605;BME280;11469;49.024;8.246;2023-03-21T06:58:48;100545.91;;;7.53;100.00
22605;BME280;11469;49.024;8.246;2023-03-21T07:01:14;100551.13;;;7.55;100.00
22605;BME280;11469;49.024;8.246;2023-03-21T07:03:39;100545.66;;;7.58;100.00
22605;BME280;11469;49.024;8.246;2023-03-21T07:06:09;100537.91;;;7.64;100.00
22605;BME280;11469;49.024;8.246;2023-03-21T07:08:37;100550.66;;;7.74;100.00
22605;BME280;11469;49.024;8.246;2023-03-21T07:11:03;100544.19;;;7.82;100.00
22605;BME280;11469;49.024;8.246;2023-03-21T07:13:29;100549.25;;;7.88;100.00
22605;BME280;11469;49.024;8.246;2023-03-21T07:15:55;100547.69;;;7.99;100.00
22605;BME280;11469;49.024;8.246;2023-03-21T07:18:20;100544.66;;;8.05;100.00
22605;BME280;11469;49.024;8.246;2023-03-21T07:20:47;100540.63;;;8.14;100.00
22605;BME280;11469;49.024;8.246;2023-03-21T07:23:17;100539.28;;;8.20;100.00
22605;BME280;11469;49.024;8.246;2023-03-21T07:25:43;100535.09;;;8.26;100.00
22605;BME280;11469;49.024;8.246;2023-03-21T07:28:09;100540.19;;;8.33;100.00
22605;BME280;11469;49.024;8.246;2023-03-21T07:30:34;100546.16;;;8.44;100.00
22605;BME280;11469;49.024;8.246;2023-03-21T07:33:01;100530.69;;;8.58;99.40
22605;BME280;11469;49.024;8.246;2023-03-21T07:35:27;100532.03;;;8.73;97.81
22605;BME280;11469;49.024;8.246;2023-03-21T07:37:52;100538.09;;;8.87;97.50
22605;BME280;11469;49.024;8.246;2023-03-21T07:40:17;100529.72;;;8.99;96.51
22605;BME280;11469;49.024;8.246;2023-03-21T07:42:43;100535.66;;;9.10;95.86
22605;BME280;11469;49.024;8.246;2023-03-21T07:45:10;100540.56;;;9.25;95.56
22605;BME280;11469;49.024;8.246;2023-03-21T07:47:39;100540.94;;;9.36;94.44
22605;BME280;11469;49.024;8.246;2023-03-21T07:50:05;100543.69;;;9.48;93.18
22605;BME280;11469;49.024;8.246;2023-03-21T07:52:31;100552.91;;;9.61;92.28
22605;BME280;11469;49.024;8.246;2023-03-21T07:54:57;100545.31;;;9.74;90.97
22605;BME280;11469;49.024;8.246;2023-03-21T07:57:22;100542.84;;;9.84;90.73
22605;BME280;11469;49.024;8.246;2023-03-21T07:59:47;100547.63;;;9.84;89.10
22605;BME280;11469;49.024;8.246;2023-03-21T08:02:16;100552.69;;;9.94;89.12
22605;BME280;11469;49.024;8.246;2023-03-21T08:04:42;100549.41;;;10.04;89.01
22605;BME280;11469;49.024;8.246;2023-03-21T08:07:09;100556.28;;;10.07;88.17
22605;BME280;11469;49.024;8.246;2023-03-21T08:09:35;100555.13;;;10.08;87.39
22605;BME280;11469;49.024;8.246;2023-03-21T08:12:02;100554.41;;;10.11;87.10
22605;BME280;11469;49.024;8.246;2023-03-21T08:14:27;100545.66;;;10.12;87.17
22605;BME280;11469;49.024;8.246;2023-03-21T08:16:52;100551.97;;;10.21;86.77
22605;BME280;11469;49.024;8.246;2023-03-21T08:19:18;100549.59;;;10.36;86.79
22605;BME280;11469;49.024;8.246;2023-03-21T08:21:49;100549.41;;;10.44;86.15
22605;BME280;11469;49.024;8.246;2023-03-21T08:24:15;100553.56;;;10.50;85.90
22605;BME280;11469;49.024;8.246;2023-03-21T08:26:41;100552.81;;;10.66;85.83
22605;BME280;11469;49.024;8.246;2023-03-21T08:29:07;100546.78;;;10.79;85.27
22605;BME280;11469;49.024;8.246;2023-03-21T08:31:33;100555.28;;;10.98;85.23
22605;BME280;11469;49.024;8.246;2023-03-21T08:33:58;100551.66;;;10.98;84.30
22605;BME280;11469;49.024;8.246;2023-03-21T08:36:24;100544.97;;;11.03;82.87
22605;BME280;11469;49.024;8.246;2023-03-21T08:38:49;100546.88;;;11.14;83.18
22605;BME280;11469;49.024;8.246;2023-03-21T08:41:19;100552.59;;;11.18;81.47
22605;BME280;11469;49.024;8.246;2023-03-21T08:43:47;100550.59;;;11.18;82.25
22605;BME280;11469;49.024;8.246;2023-03-21T08:46:12;100547.97;;;11.25;82.10
22605;BME280;11469;49.024;8.246;2023-03-21T08:48:38;100548.78;;;11.26;81.55
22605;BME280;11469;49.024;8.246;2023-03-21T08:51:04;100552.59;;;11.34;81.24
22605;BME280;11469;49.024;8.246;2023-03-21T08:53:30;100558.34;;;11.41;81.35
22605;BME280;11469;49.024;8.246;2023-03-21T08:55:56;100555.34;;;11.49;81.70
22605;BME280;11469;49.024;8.246;2023-03-21T08:58:21;100545.47;;;11.55;81.27
22605;BME280;11469;49.024;8.246;2023-03-21T09:00:47;100549.63;;;11.61;80.11
22605;BME280;11469;49.024;8.246;2023-03-21T09:03:12;100552.25;;;11.70;79.29
22605;BME280;11469;49.024;8.246;2023-03-21T09:05:38;100542.72;;;11.75;78.90
22605;BME280;11469;49.024;8.246;2023-03-21T09:08:03;100540.97;;;11.86;78.57
22605;BME280;11469;49.024;8.246;2023-03-21T09:10:29;100534.25;;;11.90;78.23
22605;BME280;11469;49.024;8.246;2023-03-21T09:12:55;100538.03;;;11.98;76.99
22605;BME280;11469;49.024;8.246;2023-03-21T09:15:23;100539.19;;;12.13;77.50
22605;BME280;11469;49.024;8.246;2023-03-21T09:17:49;100537.63;;;12.15;76.76
22605;BME280;11469;49.024;8.246;2023-03-21T09:20:20;100536.22;;;12.25;76.13
22605;BME280;11469;49.024;8.246;2023-03-21T09:22:50;100538.66;;;12.26;75.80
22605;BME280;11469;49.024;8.246;2023-03-21T09:25:17;100537.69;;;12.38;76.49
22605;BME280;11469;49.024;8.246;2023-03-21T09:27:43;100540.84;;;12.37;75.29
22605;BME280;11469;49.024;8.246;2023-03-21T09:30:11;100545.00;;;12.43;75.75
22605;BME280;11469;49.024;8.246;2023-03-21T09:32:38;100539.31;;;12.39;75.64
22605;BME280;11469;49.024;8.246;2023-03-21T09:35:04;100541.88;;;12.48;75.46
22605;BME280;11469;49.024;8.246;2023-03-21T09:37:30;100546.69;;;12.47;74.49
22605;BME280;11469;49.024;8.246;2023-03-21T09:39:56;100541.06;;;12.47;74.11
22605;BME280;11469;49.024;8.246;2023-03-21T09:43:18;100542.56;;;12.41;73.93
22605;BME280;11469;49.024;8.246;2023-03-21T09:45:44;100545.16;;;12.50;74.90
22605;BME280;11469;49.024;8.246;2023-03-21T09:49:04;100548.84;;;12.54;75.36
22605;BME280;11469;49.024;8.246;2023-03-21T09:51:35;100546.16;;;12.61;74.27
22605;BME280;11469;49.024;8.246;2023-03-21T09:54:06;100539.44;;;12.66;73.71
22605;BME280;11469;49.024;8.246;2023-03-21T09:56:37;100546.69;;;12.67;73.88
22605;BME280;11469;49.024;8.246;2023-03-21T09:59:06;100548.13;;;12.80;73.79
22605;BME280;11469;49.024;8.246;2023-03-21T10:01:34;100536.94;;;12.83;73.53
22605;BME280;11469;49.024;8.246;2023-03-21T10:04:07;100544.19;;;12.84;72.43
22605;BME280;11469;49.024;8.246;2023-03-21T10:06:37;100544.75;;;12.93;72.71
22605;BME280;11469;49.024;8.246;2023-03-21T10:09:10;100536.91;;;13.03;72.11
22605;BME280;11469;49.024;8.246;2023-03-21T10:14:20;100534.56;;;13.08;73.05
22605;BME280;11469;49.024;8.246;2023-03-21T10:16:56;100535.03;;;13.10;71.36
22605;BME280;11469;49.024;8.246;2023-03-21T10:19:22;100529.38;;;13.10;72.18
22605;BME280;11469;49.024;8.246;2023-03-21T10:21:49;100534.38;;;13.17;71.94
22605;BME280;11469;49.024;8.246;2023-03-21T10:24:19;100519.53;;;13.20;71.46
22605;BME280;11469;49.024;8.246;2023-03-21T10:26:47;100521.38;;;13.35;70.74
22605;BME280;11469;49.024;8.246;2023-03-21T10:29:15;100514.56;;;13.36;70.73
22605;BME280;11469;49.024;8.246;2023-03-21T10:31:43;100511.03;;;13.43;70.75
22605;BME280;11469;49.024;8.246;2023-03-21T10:34:17;100505.91;;;13.48;69.97
22605;BME280;11469;49.024;8.246;2023-03-21T10:36:43;100510.84;;;13.55;70.19
22605;BME280;11469;49.024;8.246;2023-03-21T10:39:31;100494.91;;;13.66;69.30
22605;BME280;11469;49.024;8.246;2023-03-21T10:41:58;100505.31;;;13.62;69.09
22605;BME280;11469;49.024;8.246;2023-03-21T10:49:37;100495.38;;;13.72;67.70
22605;BME280;11469;49.024;8.246;2023-03-21T10:52:08;100487.34;;;13.74;68.45
22605;BME280;11469;49.024;8.246;2023-03-21T10:54:35;100495.53;;;13.82;68.60
22605;BME280;11469;49.024;8.246;2023-03-21T10:57:30;100484.94;;;14.02;68.12
22605;BME280;11469;49.024;8.246;2023-03-21T10:59:58;100489.03;;;14.08;67.70
22605;BME280;11469;49.024;8.246;2023-03-21T11:02:34;100487.94;;;14.20;67.28
22605;BME280;11469;49.024;8.246;2023-03-21T11:05:37;100492.88;;;14.26;66.05
22605;BME280;11469;49.024;8.246;2023-03-21T11:08:12;100484.91;;;14.36;66.68
22605;BME280;11469;49.024;8.246;2023-03-21T11:11:02;100477.31;;;14.40;66.07
22605;BME280;11469;49.024;8.246;2023-03-21T11:13:38;100485.19;;;14.57;65.35
22605;BME280;11469;49.024;8.246;2023-03-21T11:16:05;100474.19;;;14.45;64.56
22605;BME280;11469;49.024;8.246;2023-03-21T11:18:31;100476.66;;;14.50;64.22
22605;BME280;11469;49.024;8.246;2023-03-21T11:21:04;100473.50;;;14.55;63.91
22605;BME280;11469;49.024;8.246;2023-03-21T11:23:33;100469.94;;;14.62;63.08
22605;BME280;11469;49.024;8.246;2023-03-21T11:26:01;100467.16;;;14.69;61.40
22605;BME280;11469;49.024;8.246;2023-03-21T11:28:34;100467.97;;;14.69;62.35
22605;BME280;11469;49.024;8.246;2023-03-21T11:31:02;100457.50;;;14.70;62.86
22605;BME280;11469;49.024;8.246;2023-03-21T11:33:37;100467.19;;;14.72;61.79
22605;BME280;11469;49.024;8.246;2023-03-21T11:36:05;100459.94;;;14.71;62.47
22605;BME280;11469;49.024;8.246;2023-03-21T11:38:36;100457.63;;;14.84;62.11
22605;BME280;11469;49.024;8.246;2023-03-21T11:41:02;100465.28;;;14.83;60.89
22605;BME280;11469;49.024;8.246;2023-03-21T11:43:31;100455.66;;;14.88;61.62
22605;BME280;11469;49.024;8.246;2023-03-21T11:48:37;100438.13;;;15.16;60.82
22605;BME280;11469;49.024;8.246;2023-03-21T11:56:50;100435.16;;;15.49;58.92
22605;BME280;11469;49.024;8.246;2023-03-21T12:04:46;100418.59;;;15.48;58.22
22605;BME280;11469;49.024;8.246;2023-03-21T12:21:37;100395.50;;;16.25;55.83
22605;BME280;11469;49.024;8.246;2023-03-21T12:24:19;100393.13;;;16.42;55.11
22605;BME280;11469;49.024;8.246;2023-03-21T12:26:57;100384.22;;;16.33;55.22
22605;BME280;11469;49.024;8.246;2023-03-21T12:29:44;100382.59;;;16.35;54.90
22605;BME280;11469;49.024;8.246;2023-03-21T12:32:24;100377.75;;;16.32;53.99
22605;BME280;11469;49.024;8.246;2023-03-21T12:43:26;100370.84;;;16.19;53.51
22605;BME280;11469;49.024;8.246;2023-03-21T12:45:58;100375.28;;;16.20;54.61
22605;BME280;11469;49.024;8.246;2023-03-21T12:48:42;100354.28;;;16.24;54.09
22605;BME280;11469;49.024;8.246;2023-03-21T12:51:12;100354.72;;;16.37;54.45
22605;BME280;11469;49.024;8.246;2023-03-21T12:56:24;100343.81;;;16.60;53.13
22605;BME280;11469;49.024;8.246;2023-03-21T13:01:46;100344.66;;;16.65;52.66
22605;BME280;11469;49.024;8.246;2023-03-21T13:06:52;100341.78;;;16.61;52.11
22605;BME280;11469;49.024;8.246;2023-03-21T13:09:30;100339.00;;;16.79;52.62
22605;BME280;11469;49.024;8.246;2023-03-21T13:11:58;100339.41;;;16.88;49.76
22605;BME280;11469;49.024;8.246;2023-03-21T13:14:35;100334.53;;;16.88;50.32
22605;BME280;11469;49.024;8.246;2023-03-21T13:17:10;100337.34;;;16.99;50.06
22605;BME280;11469;49.024;8.246;2023-03-21T13:22:39;100328.88;;;16.71;50.56
22605;BME280;11469;49.024;8.246;2023-03-21T13:25:06;100329.69;;;16.78;51.23
22605;BME280;11469;49.024;8.246;2023-03-21T13:27:40;100327.66;;;16.82;50.98
22605;BME280;11469;49.024;8.246;2023-03-21T13:30:22;100326.41;;;17.05;51.65
22605;BME280;11469;49.024;8.246;2023-03-21T13:32:54;100331.63;;;17.20;50.60
22605;BME280;11469;49.024;8.246;2023-03-21T13:35:38;100325.56;;;17.25;49.12
22605;BME280;11469;49.024;8.246;2023-03-21T13:38:21;100322.75;;;17.04;49.66
22605;BME280;11469;49.024;8.246;2023-03-21T13:40:58;100320.31;;;17.13;50.07
22605;BME280;11469;49.024;8.246;2023-03-21T13:46:13;100305.31;;;17.34;48.74
22605;BME280;11469;49.024;8.246;2023-03-21T13:49:12;100310.06;;;17.51;48.56
22605;BME280;11469;49.024;8.246;2023-03-21T14:02:16;100300.09;;;17.11;49.38
22605;BME280;11469;49.024;8.246;2023-03-21T14:04:45;100296.88;;;17.06;49.62
22605;BME280;11469;49.024;8.246;2023-03-21T14:07:20;100298.16;;;16.94;49.95
22605;BME280;11469;49.024;8.246;2023-03-21T14:10:15;100294.91;;;16.92;51.22
22605;BME280;11469;49.024;8.246;2023-03-21T14:12:42;100281.56;;;16.92;50.83
22605;BME280;11469;49.024;8.246;2023-03-21T14:15:19;100280.34;;;16.90;50.94
22605;BME280;11469;49.024;8.246;2023-03-21T14:17:58;100275.91;;;16.85;50.84
22605;BME280;11469;49.024;8.246;2023-03-21T14:20:29;100264.19;;;16.80;50.69
22605;BME280;11469;49.024;8.246;2023-03-21T14:22:55;100266.63;;;16.78;51.76
22605;BME280;11469;49.024;8.246;2023-03-21T14:25:22;100269.06;;;16.79;50.50
22605;BME280;11469;49.024;8.246;2023-03-21T14:27:53;100268.66;;;16.81;50.46
22605;BME280;11469;49.024;8.246;2023-03-21T14:30:31;100262.97;;;16.84;49.95
22605;BME280;11469;49.024;8.246;2023-03-21T14:32:58;100266.63;;;16.85;50.08
22605;BME280;11469;49.024;8.246;2023-03-21T14:35:28;100267.00;;;16.87;50.45
22605;BME280;11469;49.024;8.246;2023-03-21T14:37:59;100268.22;;;16.93;50.53
22605;BME280;11469;49.024;8.246;2023-03-21T14:40:26;100267.44;;;16.82;50.38
22605;BME280;11469;49.024;8.246;2023-03-21T14:42:53;100260.56;;;16.72;49.51
22605;BME280;11469;49.024;8.246;2023-03-21T14:45:25;100271.47;;;16.59;50.60
22605;BME280;11469;49.024;8.246;2023-03-21T14:47:58;100263.38;;;16.62;50.28
22605;BME280;11469;49.024;8.246;2023-03-21T14:50:33;100262.56;;;16.57;50.82
22605;BME280;11469;49.024;8.246;2023-03-21T14:53:01;100270.69;;;16.41;51.42